sensor_id;sensor_type;location;lat;lon;timestamp;pressure;altitude;pressure_sealevel;temperature;humidity
69058;BME280;56128;37.534;-122.308;2023-03-02T00:02:02;101341.19;;;9.25;82.30
69058;BME280;56128;37.534;-122.308;2023-03-02T00:04:39;101354.22;;;9.30;81.13
69058;BME280;56128;37.534;-122.308;2023-03-02T00:07:08;101352.59;;;9.27;79.52
69058;BME280;56128;37.534;-122.308;2023-03-02T00:09:36;101351.50;;;9.31;80.62
69058;BME280;56128;37.534;-122.308;2023-03-02T00:12:03;101340.50;;;9.21;82.69
69058;BME280;56128;37.534;-122.308;2023-03-02T00:14:29;101343.34;;;9.18;81.50
69058;BME280;56128;37.534;-122.308;2023-03-02T00:16:56;101347.06;;;9.16;82.87
69058;BME280;56128;37.534;-122.308;2023-03-02T00:19:22;101351.16;;;9.07;85.27
69058;BME280;56128;37.534;-122.308;2023-03-02T00:21:48;101345.81;;;9.07;83.93
69058;BME280;56128;37.534;-122.308;2023-03-02T00:24:14;101359.72;;;8.98;87.88
69058;BME280;56128;37.534;-122.308;2023-03-02T00:26:40;101352.88;;;8.93;87.25
69058;BME280;56128;37.534;-122.308;2023-03-02T00:29:07;101353.81;;;8.92;86.50
69058;BME280;56128;37.534;-122.308;2023-03-02T00:31:33;101350.19;;;8.93;83.46
69058;BME280;56128;37.534;-122.308;2023-03-02T00:33:59;101361.03;;;8.90;86.80
69058;BME280;56128;37.534;-122.308;2023-03-02T00:36:25;101361.97;;;8.89;84.44
69058;BME280;56128;37.534;-122.308;2023-03-02T00:38:52;101372.66;;;8.89;89.18
69058;BME280;56128;37.534;-122.308;2023-03-02T00:41:19;101370.28;;;8.85;86.04
69058;BME280;56128;37.534;-122.308;2023-03-02T00:43:48;101366.84;;;8.83;84.46
69058;BME280;56128;37.534;-122.308;2023-03-02T00:46:18;101373.81;;;8.85;86.12
69058;BME280;56128;37.534;-122.308;2023-03-02T00:48:45;101370.44;;;8.82;85.51
69058;BME280;56128;37.534;-122.308;2023-03-02T00:51:12;101374.44;;;8.74;85.42
69058;BME280;56128;37.534;-122.308;2023-03-02T00:53:38;101377.75;;;8.64;84.54
69058;BME280;56128;37.534;-122.308;2023-03-02T00:56:05;101378.69;;;8.63;85.55
69058;BME280;56128;37.534;-122.308;2023-03-02T00:58:32;101388.41;;;8.64;81.67
69058;BME280;56128;37.534;-122.308;2023-03-02T01:01:03;101393.22;;;8.57;82.31
69058;BME280;56128;37.534;-122.308;2023-03-02T01:03:29;101391.19;;;8.46;86.58
69058;BME280;56128;37.534;-122.308;2023-03-02T01:05:56;101399.41;;;8.41;88.54
69058;BME280;56128;37.534;-122.308;2023-03-02T01:08:23;101397.19;;;8.34;89.91
69058;BME280;56128;37.534;-122.308;2023-03-02T01:10:50;101409.03;;;8.44;84.19
69058;BME280;56128;37.534;-122.308;2023-03-02T01:13:18;101414.97;;;8.33;84.65
69058;BME280;56128;37.534;-122.308;2023-03-02T01:15:45;101423.41;;;8.25;85.37
69058;BME280;56128;37.534;-122.308;2023-03-02T01:18:12;101421.78;;;8.23;86.97
69058;BME280;56128;37.534;-122.308;2023-03-02T01:20:38;101421.28;;;8.16;83.63
69058;BME280;56128;37.534;-122.308;2023-03-02T01:23:04;101421.59;;;8.10;84.40
69058;BME280;56128;37.534;-122.308;2023-03-02T01:25:31;101426.69;;;8.15;82.11
69058;BME280;56128;37.534;-122.308;2023-03-02T01:27:57;101428.06;;;8.06;84.28
69058;BME280;56128;37.534;-122.308;2023-03-02T01:30:23;101441.44;;;8.04;85.03
69058;BME280;56128;37.534;-122.308;2023-03-02T01:32:49;101432.34;;;7.92;85.44
69058;BME280;56128;37.534;-122.308;2023-03-02T01:35:16;101439.25;;;7.79;90.49
69058;BME280;56128;37.534;-122.308;2023-03-02T01:37:42;101445.19;;;7.84;86.70
69058;BME280;56128;37.534;-122.308;2023-03-02T01:40:12;101445.38;;;7.81;87.75
69058;BME280;56128;37.534;-122.308;2023-03-02T01:42:45;101454.31;;;7.80;89.13
69058;BME280;56128;37.534;-122.308;2023-03-02T01:45:42;101456.59;;;7.70;91.26
69058;BME280;56128;37.534;-122.308;2023-03-02T01:48:11;101456.38;;;7.57;95.54
69058;BME280;56128;37.534;-122.308;2023-03-02T01:50:39;101470.72;;;7.55;95.69
69058;BME280;56128;37.534;-122.308;2023-03-02T01:53:05;101465.00;;;7.45;100.00
69058;BME280;56128;37.534;-122.308;2023-03-02T01:55:33;101462.84;;;7.36;99.27
69058;BME280;56128;37.534;-122.308;2023-03-02T01:58:02;101467.47;;;7.32;100.00
69058;BME280;56128;37.534;-122.308;2023-03-02T02:00:35;101472.31;;;7.24;100.00
69058;BME280;56128;37.534;-122.308;2023-03-02T02:04:24;101475.97;;;7.21;100.00
69058;BME280;56128;37.534;-122.308;2023-03-02T02:07:03;101472.69;;;7.16;100.00
69058;BME280;56128;37.534;-122.308;2023-03-02T02:09:43;101479.25;;;7.09;100.00
69058;BME280;56128;37.534;-122.308;2023-03-02T02:12:18;101480.75;;;6.97;100.00
69058;BME280;56128;37.534;-122.308;2023-03-02T02:14:45;101479.22;;;6.91;100.00
69058;BME280;56128;37.534;-122.308;2023-03-02T02:17:13;101489.88;;;6.91;100.00
69058;BME280;56128;37.534;-122.308;2023-03-02T02:20:00;101476.88;;;6.85;100.00
69058;BME280;56128;37.534;-122.308;2023-03-02T02:25:12;101474.38;;;6.82;100.00
69058;BME280;56128;37.534;-122.308;2023-03-02T02:27:41;101504.44;;;6.84;100.00
69058;BME280;56128;37.534;-122.308;2023-03-02T02:30:10;101496.59;;;6.81;100.00
69058;BME280;56128;37.534;-122.308;2023-03-02T02:32:37;101504.19;;;6.89;100.00
69058;BME280;56128;37.534;-122.308;2023-03-02T02:35:14;101510.88;;;6.97;100.00
69058;BME280;56128;37.534;-122.308;2023-03-02T02:37:45;101510.31;;;6.91;100.00
69058;BME280;56128;37.534;-122.308;2023-03-02T02:40:46;101519.16;;;6.91;100.00
69058;BME280;56128;37.534;-122.308;2023-03-02T02:43:16;101526.66;;;6.83;100.00
69058;BME280;56128;37.534;-122.308;2023-03-02T02:45:44;101527.06;;;6.74;100.00
69058;BME280;56128;37.534;-122.308;2023-03-02T02:48:15;101529.09;;;6.69;100.00
69058;BME280;56128;37.534;-122.308;2023-03-02T02:50:43;101539.16;;;6.62;100.00
69058;BME280;56128;37.534;-122.308;2023-03-02T02:53:20;101544.97;;;6.51;100.00
69058;BME280;56128;37.534;-122.308;2023-03-02T02:55:49;101550.88;;;6.39;100.00
69058;BME280;56128;37.534;-122.308;2023-03-02T02:58:41;101553.03;;;6.30;100.00
69058;BME280;56128;37.534;-122.308;2023-03-02T03:01:12;101561.28;;;6.24;100.00
69058;BME280;56128;37.534;-122.308;2023-03-02T03:03:45;101565.78;;;6.22;100.00
69058;BME280;56128;37.534;-122.308;2023-03-02T03:06:19;101567.78;;;6.17;100.00
69058;BME280;56128;37.534;-122.308;2023-03-02T03:08:52;101584.63;;;6.17;100.00
69058;BME280;56128;37.534;-122.308;2023-03-02T03:11:26;101585.63;;;6.15;100.00
69058;BME280;56128;37.534;-122.308;2023-03-02T03:14:12;101588.50;;;6.29;100.00
69058;BME280;56128;37.534;-122.308;2023-03-02T03:16:41;101593.97;;;6.26;100.00
69058;BME280;56128;37.534;-122.308;2023-03-02T03:19:19;101582.06;;;6.35;100.00
69058;BME280;56128;37.534;-122.308;2023-03-02T03:21:49;101584.66;;;6.37;100.00
69058;BME280;56128;37.534;-122.308;2023-03-02T03:24:16;101580.44;;;6.52;100.00
69058;BME280;56128;37.534;-122.308;2023-03-02T03:26:43;101577.13;;;6.65;100.00
69058;BME280;56128;37.534;-122.308;2023-03-02T03:29:10;101573.66;;;6.63;100.00
69058;BME280;56128;37.534;-122.308;2023-03-02T03:31:37;101569.16;;;6.65;100.00
69058;BME280;56128;37.534;-122.308;2023-03-02T03:34:04;101579.88;;;6.64;100.00
69058;BME280;56128;37.534;-122.308;2023-03-02T03:36:31;101579.78;;;6.65;100.00
69058;BME280;56128;37.534;-122.308;2023-03-02T03:38:58;101588.31;;;6.53;100.00
69058;BME280;56128;37.534;-122.308;2023-03-02T03:41:25;101583.72;;;6.38;100.00
69058;BME280;56128;37.534;-122.308;2023-03-02T03:43:52;101593.19;;;6.24;100.00
69058;BME280;56128;37.534;-122.308;2023-03-02T03:46:18;101602.41;;;6.15;100.00
69058;BME280;56128;37.534;-122.308;2023-03-02T03:48:44;101608.06;;;6.08;100.00
69058;BME280;56128;37.534;-122.308;2023-03-02T03:51:11;101612.84;;;5.99;100.00
69058;BME280;56128;37.534;-122.308;2023-03-02T03:53:37;101610.56;;;5.90;100.00
69058;BME280;56128;37.534;-122.308;2023-03-02T03:56:04;101610.03;;;5.82;100.00
69058;BME280;56128;37.534;-122.308;2023-03-02T03:58:30;101615.59;;;5.76;100.00
69058;BME280;56128;37.534;-122.308;2023-03-02T04:00:57;101608.84;;;5.68;100.00
69058;BME280;56128;37.534;-122.308;2023-03-02T04:03:24;101608.88;;;5.67;100.00
69058;BME280;56128;37.534;-122.308;2023-03-02T04:05:51;101617.59;;;5.71;100.00
69058;BME280;56128;37.534;-122.308;2023-03-02T04:08:18;101616.91;;;5.65;100.00
69058;BME280;56128;37.534;-122.308;2023-03-02T04:10:44;101623.09;;;5.66;100.00
69058;BME280;56128;37.534;-122.308;2023-03-02T04:13:11;101624.56;;;5.73;100.00
69058;BME280;56128;37.534;-122.308;2023-03-02T04:15:38;101624.81;;;5.67;100.00
69058;BME280;56128;37.534;-122.308;2023-03-02T04:18:06;101622.25;;;5.86;100.00
69058;BME280;56128;37.534;-122.308;2023-03-02T04:20:32;101624.22;;;6.03;99.27
69058;BME280;56128;37.534;-122.308;2023-03-02T04:22:59;101619.78;;;6.04;100.00
69058;BME280;56128;37.534;-122.308;2023-03-02T04:25:27;101614.06;;;6.13;98.54
69058;BME280;56128;37.534;-122.308;2023-03-02T04:27:54;101618.94;;;6.22;95.28
69058;BME280;56128;37.534;-122.308;2023-03-02T04:30:23;101619.94;;;6.20;94.48
69058;BME280;56128;37.534;-122.308;2023-03-02T04:32:50;101612.72;;;6.03;99.76
69058;BME280;56128;37.534;-122.308;2023-03-02T04:35:16;101633.09;;;6.02;96.91
69058;BME280;56128;37.534;-122.308;2023-03-02T04:37:42;101621.03;;;5.93;97.31
69058;BME280;56128;37.534;-122.308;2023-03-02T04:40:11;101624.91;;;5.86;99.00
69058;BME280;56128;37.534;-122.308;2023-03-02T04:42:46;101631.66;;;5.73;100.00
69058;BME280;56128;37.534;-122.308;2023-03-02T04:45:13;101639.22;;;5.61;100.00
69058;BME280;56128;37.534;-122.308;2023-03-02T04:47:39;101647.63;;;5.50;100.00
69058;BME280;56128;37.534;-122.308;2023-03-02T04:50:07;101648.19;;;5.36;100.00
69058;BME280;56128;37.534;-122.308;2023-03-02T04:52:34;101639.72;;;5.27;100.00
69058;BME280;56128;37.534;-122.308;2023-03-02T04:55:00;101641.81;;;5.18;100.00
69058;BME280;56128;37.534;-122.308;2023-03-02T04:57:29;101654.28;;;5.16;100.00
69058;BME280;56128;37.534;-122.308;2023-03-02T04:59:55;101656.94;;;5.16;100.00
69058;BME280;56128;37.534;-122.308;2023-03-02T05:02:21;101655.63;;;5.04;100.00
69058;BME280;56128;37.534;-122.308;2023-03-02T05:04:50;101651.31;;;5.02;100.00
69058;BME280;56128;37.534;-122.308;2023-03-02T05:07:20;101657.75;;;4.95;100.00
69058;BME280;56128;37.534;-122.308;2023-03-02T05:09:46;101670.16;;;4.94;100.00
69058;BME280;56128;37.534;-122.308;2023-03-02T05:12:12;101664.16;;;4.89;100.00
69058;BME280;56128;37.534;-122.308;2023-03-02T05:14:38;101671.41;;;4.84;100.00
69058;BME280;56128;37.534;-122.308;2023-03-02T05:17:05;101680.44;;;5.03;100.00
69058;BME280;56128;37.534;-122.308;2023-03-02T05:19:31;101678.78;;;4.99;100.00
69058;BME280;56128;37.534;-122.308;2023-03-02T05:21:57;101669.88;;;5.02;100.00
69058;BME280;56128;37.534;-122.308;2023-03-02T05:24:23;101674.19;;;5.04;100.00
69058;BME280;56128;37.534;-122.308;2023-03-02T05:26:50;101662.78;;;5.02;100.00
69058;BME280;56128;37.534;-122.308;2023-03-02T05:29:16;101668.31;;;4.96;100.00
69058;BME280;56128;37.534;-122.308;2023-03-02T05:31:44;101686.19;;;4.91;100.00
69058;BME280;56128;37.534;-122.308;2023-03-02T05:34:15;101691.03;;;4.80;100.00
69058;BME280;56128;37.534;-122.308;2023-03-02T05:36:42;101688.81;;;4.67;100.00
69058;BME280;56128;37.534;-122.308;2023-03-02T05:39:10;101697.81;;;4.63;100.00
69058;BME280;56128;37.534;-122.308;2023-03-02T05:41:37;101708.53;;;4.60;100.00
69058;BME280;56128;37.534;-122.308;2023-03-02T05:44:04;101711.28;;;4.57;100.00
69058;BME280;56128;37.534;-122.308;2023-03-02T05:46:34;101709.66;;;4.53;100.00
69058;BME280;56128;37.534;-122.308;2023-03-02T05:49:00;101720.16;;;4.56;100.00
69058;BME280;56128;37.534;-122.308;2023-03-02T05:51:26;101713.94;;;4.57;100.00
69058;BME280;56128;37.534;-122.308;2023-03-02T05:53:53;101708.16;;;4.71;100.00
69058;BME280;56128;37.534;-122.308;2023-03-02T05:56:19;101711.78;;;5.16;97.96
69058;BME280;56128;37.534;-122.308;2023-03-02T05:58:47;101713.25;;;5.23;99.28
69058;BME280;56128;37.534;-122.308;2023-03-02T06:01:13;101708.84;;;5.46;94.88
69058;BME280;56128;37.534;-122.308;2023-03-02T06:03:39;101705.16;;;5.50;93.76
69058;BME280;56128;37.534;-122.308;2023-03-02T06:06:05;101722.63;;;5.56;94.87
69058;BME280;56128;37.534;-122.308;2023-03-02T06:08:31;101737.13;;;5.47;95.71
69058;BME280;56128;37.534;-122.308;2023-03-02T06:10:58;101741.19;;;5.33;100.00
69058;BME280;56128;37.534;-122.308;2023-03-02T06:13:24;101750.53;;;5.20;100.00
69058;BME280;56128;37.534;-122.308;2023-03-02T06:15:50;101738.03;;;5.00;100.00
69058;BME280;56128;37.534;-122.308;2023-03-02T06:18:17;101753.31;;;4.93;100.00
69058;BME280;56128;37.534;-122.308;2023-03-02T06:20:43;101743.25;;;4.78;100.00
69058;BME280;56128;37.534;-122.308;2023-03-02T06:23:09;101752.44;;;4.67;100.00
69058;BME280;56128;37.534;-122.308;2023-03-02T06:25:37;101745.97;;;4.51;100.00
69058;BME280;56128;37.534;-122.308;2023-03-02T06:28:06;101746.06;;;4.48;100.00
69058;BME280;56128;37.534;-122.308;2023-03-02T06:30:32;101747.91;;;4.46;100.00
69058;BME280;56128;37.534;-122.308;2023-03-02T06:32:58;101739.25;;;4.41;100.00
69058;BME280;56128;37.534;-122.308;2023-03-02T06:35:25;101740.25;;;4.38;100.00
69058;BME280;56128;37.534;-122.308;2023-03-02T06:37:51;101738.78;;;4.29;100.00
69058;BME280;56128;37.534;-122.308;2023-03-02T06:40:17;101735.34;;;4.26;100.00
69058;BME280;56128;37.534;-122.308;2023-03-02T06:42:45;101755.78;;;4.22;100.00
69058;BME280;56128;37.534;-122.308;2023-03-02T06:45:12;101752.63;;;4.11;100.00
69058;BME280;56128;37.534;-122.308;2023-03-02T06:47:38;101741.56;;;3.98;100.00
69058;BME280;56128;37.534;-122.308;2023-03-02T06:50:05;101757.69;;;3.90;100.00
69058;BME280;56128;37.534;-122.308;2023-03-02T06:52:32;101758.72;;;3.86;100.00
69058;BME280;56128;37.534;-122.308;2023-03-02T06:54:59;101761.56;;;3.80;100.00
69058;BME280;56128;37.534;-122.308;2023-03-02T06:57:25;101768.84;;;3.73;100.00
69058;BME280;56128;37.534;-122.308;2023-03-02T06:59:59;101762.09;;;3.63;100.00
69058;BME280;56128;37.534;-122.308;2023-03-02T07:02:26;101760.50;;;3.57;100.00
69058;BME280;56128;37.534;-122.308;2023-03-02T07:04:52;101779.88;;;3.57;100.00
69058;BME280;56128;37.534;-122.308;2023-03-02T07:07:18;101777.41;;;3.53;100.00
69058;BME280;56128;37.534;-122.308;2023-03-02T07:09:44;101780.00;;;3.54;100.00
69058;BME280;56128;37.534;-122.308;2023-03-02T07:12:10;101773.09;;;3.49;100.00
69058;BME280;56128;37.534;-122.308;2023-03-02T07:14:37;101760.03;;;3.42;100.00
69058;BME280;56128;37.534;-122.308;2023-03-02T07:17:04;101766.88;;;3.50;100.00
69058;BME280;56128;37.534;-122.308;2023-03-02T07:19:30;101780.03;;;3.53;100.00
69058;BME280;56128;37.534;-122.308;2023-03-02T07:21:56;101775.66;;;3.52;100.00
69058;BME280;56128;37.534;-122.308;2023-03-02T07:24:22;101773.00;;;3.52;100.00
69058;BME280;56128;37.534;-122.308;2023-03-02T07:26:49;101780.94;;;3.52;100.00
69058;BME280;56128;37.534;-122.308;2023-03-02T07:29:15;101796.06;;;3.48;100.00
69058;BME280;56128;37.534;-122.308;2023-03-02T07:31:41;101784.50;;;3.51;100.00
69058;BME280;56128;37.534;-122.308;2023-03-02T07:34:09;101790.66;;;3.51;100.00
69058;BME280;56128;37.534;-122.308;2023-03-02T07:36:35;101795.09;;;3.51;100.00
69058;BME280;56128;37.534;-122.308;2023-03-02T07:39:02;101798.66;;;3.50;100.00
69058;BME280;56128;37.534;-122.308;2023-03-02T07:41:29;101792.56;;;3.46;100.00
69058;BME280;56128;37.534;-122.308;2023-03-02T07:43:55;101789.72;;;3.54;100.00
69058;BME280;56128;37.534;-122.308;2023-03-02T07:46:21;101791.44;;;3.55;100.00
69058;BME280;56128;37.534;-122.308;2023-03-02T07:48:47;101778.84;;;3.63;100.00
69058;BME280;56128;37.534;-122.308;2023-03-02T07:51:13;101778.31;;;3.52;100.00
69058;BME280;56128;37.534;-122.308;2023-03-02T07:53:40;101778.38;;;3.50;100.00
69058;BME280;56128;37.534;-122.308;2023-03-02T07:56:07;101796.06;;;3.48;100.00
69058;BME280;56128;37.534;-122.308;2023-03-02T07:58:34;101794.50;;;3.41;100.00
69058;BME280;56128;37.534;-122.308;2023-03-02T08:01:01;101796.47;;;3.34;100.00
69058;BME280;56128;37.534;-122.308;2023-03-02T08:03:27;101801.09;;;3.26;100.00
69058;BME280;56128;37.534;-122.308;2023-03-02T08:05:54;101809.31;;;3.17;100.00
69058;BME280;56128;37.534;-122.308;2023-03-02T08:08:20;101818.25;;;3.13;100.00
69058;BME280;56128;37.534;-122.308;2023-03-02T08:10:46;101812.28;;;3.04;100.00
69058;BME280;56128;37.534;-122.308;2023-03-02T08:13:12;101803.47;;;3.05;100.00
69058;BME280;56128;37.534;-122.308;2023-03-02T08:15:39;101806.94;;;3.07;100.00
69058;BME280;56128;37.534;-122.308;2023-03-02T08:18:05;101798.34;;;2.99;100.00
69058;BME280;56128;37.534;-122.308;2023-03-02T08:20:31;101800.41;;;2.88;100.00
69058;BME280;56128;37.534;-122.308;2023-03-02T08:22:57;101803.28;;;2.80;100.00
69058;BME280;56128;37.534;-122.308;2023-03-02T08:25:23;101803.53;;;2.69;100.00
69058;BME280;56128;37.534;-122.308;2023-03-02T08:27:49;101812.53;;;2.64;100.00
69058;BME280;56128;37.534;-122.308;2023-03-02T08:30:16;101811.03;;;2.52;100.00
69058;BME280;56128;37.534;-122.308;2023-03-02T08:32:42;101819.13;;;2.46;100.00
69058;BME280;56128;37.534;-122.308;2023-03-02T08:35:08;101807.84;;;2.39;100.00
69058;BME280;56128;37.534;-122.308;2023-03-02T08:37:35;101814.00;;;2.39;100.00
69058;BME280;56128;37.534;-122.308;2023-03-02T08:40:01;101813.28;;;2.33;100.00
69058;BME280;56128;37.534;-122.308;2023-03-02T08:42:28;101807.22;;;2.29;100.00
69058;BME280;56128;37.534;-122.308;2023-03-02T08:44:54;101803.81;;;2.24;100.00
69058;BME280;56128;37.534;-122.308;2023-03-02T08:47:20;101801.41;;;2.15;100.00
69058;BME280;56128;37.534;-122.308;2023-03-02T08:49:47;101798.94;;;2.08;100.00
69058;BME280;56128;37.534;-122.308;2023-03-02T08:52:14;101803.56;;;1.99;100.00
69058;BME280;56128;37.534;-122.308;2023-03-02T08:54:40;101801.00;;;1.94;100.00
69058;BME280;56128;37.534;-122.308;2023-03-02T08:57:09;101829.19;;;1.92;100.00
69058;BME280;56128;37.534;-122.308;2023-03-02T08:59:36;101824.09;;;1.84;100.00
69058;BME280;56128;37.534;-122.308;2023-03-02T09:02:02;101819.13;;;1.70;100.00
69058;BME280;56128;37.534;-122.308;2023-03-02T09:04:28;101830.63;;;1.68;100.00
69058;BME280;56128;37.534;-122.308;2023-03-02T09:06:55;101817.53;;;1.63;100.00
69058;BME280;56128;37.534;-122.308;2023-03-02T09:09:21;101812.34;;;1.60;100.00
69058;BME280;56128;37.534;-122.308;2023-03-02T09:11:47;101829.00;;;1.62;100.00
69058;BME280;56128;37.534;-122.308;2023-03-02T09:14:13;101838.75;;;1.57;100.00
69058;BME280;56128;37.534;-122.308;2023-03-02T09:16:40;101829.34;;;1.45;100.00
69058;BME280;56128;37.534;-122.308;2023-03-02T09:19:06;101845.91;;;1.52;100.00
69058;BME280;56128;37.534;-122.308;2023-03-02T09:21:32;101843.41;;;1.47;100.00
69058;BME280;56128;37.534;-122.308;2023-03-02T09:23:58;101847.72;;;1.50;100.00
69058;BME280;56128;37.534;-122.308;2023-03-02T09:26:26;101846.03;;;1.47;100.00
69058;BME280;56128;37.534;-122.308;2023-03-02T09:28:52;101842.63;;;1.40;100.00
69058;BME280;56128;37.534;-122.308;2023-03-02T09:31:19;101834.75;;;1.39;100.00
69058;BME280;56128;37.534;-122.308;2023-03-02T09:33:45;101833.06;;;1.36;100.00
69058;BME280;56128;37.534;-122.308;2023-03-02T09:36:18;101832.19;;;1.34;100.00
69058;BME280;56128;37.534;-122.308;2023-03-02T09:38:45;101834.03;;;1.32;100.00
69058;BME280;56128;37.534;-122.308;2023-03-02T09:41:48;101813.06;;;1.26;100.00
69058;BME280;56128;37.534;-122.308;2023-03-02T09:44:42;101838.28;;;1.39;100.00
69058;BME280;56128;37.534;-122.308;2023-03-02T09:49:59;101841.91;;;1.34;100.00
69058;BME280;56128;37.534;-122.308;2023-03-02T09:52:36;101838.53;;;1.25;100.00
69058;BME280;56128;37.534;-122.308;2023-03-02T09:55:19;101837.69;;;1.25;100.00
69058;BME280;56128;37.534;-122.308;2023-03-02T09:57:47;101834.25;;;1.20;100.00
69058;BME280;56128;37.534;-122.308;2023-03-02T10:00:48;101848.34;;;1.19;100.00
69058;BME280;56128;37.534;-122.308;2023-03-02T10:03:19;101844.97;;;1.10;100.00
69058;BME280;56128;37.534;-122.308;2023-03-02T10:05:51;101840.59;;;1.11;100.00
69058;BME280;56128;37.534;-122.308;2023-03-02T10:08:23;101831.91;;;1.06;100.00
69058;BME280;56128;37.534;-122.308;2023-03-02T10:16:04;101839.03;;;0.99;100.00
69058;BME280;56128;37.534;-122.308;2023-03-02T10:18:48;101830.34;;;0.95;100.00
69058;BME280;56128;37.534;-122.308;2023-03-02T10:21:46;101826.00;;;0.93;100.00
69058;BME280;56128;37.534;-122.308;2023-03-02T10:24:28;101836.59;;;0.90;100.00
69058;BME280;56128;37.534;-122.308;2023-03-02T10:27:15;101829.59;;;0.87;100.00
69058;BME280;56128;37.534;-122.308;2023-03-02T10:29:49;101828.78;;;0.84;100.00
69058;BME280;56128;37.534;-122.308;2023-03-02T10:32:28;101827.19;;;0.75;100.00
69058;BME280;56128;37.534;-122.308;2023-03-02T10:34:55;101829.00;;;0.71;100.00
69058;BME280;56128;37.534;-122.308;2023-03-02T10:37:28;101838.63;;;0.74;100.00
69058;BME280;56128;37.534;-122.308;2023-03-02T10:39:55;101836.91;;;0.71;100.00
69058;BME280;56128;37.534;-122.308;2023-03-02T10:42:27;101830.88;;;0.66;100.00
69058;BME280;56128;37.534;-122.308;2023-03-02T10:44:57;101837.03;;;0.65;100.00
69058;BME280;56128;37.534;-122.308;2023-03-02T10:47:28;101830.09;;;0.61;100.00
69058;BME280;56128;37.534;-122.308;2023-03-02T10:49:56;101829.25;;;0.57;100.00
69058;BME280;56128;37.534;-122.308;2023-03-02T10:52:25;101842.41;;;0.59;100.00
69058;BME280;56128;37.534;-122.308;2023-03-02T10:55:08;101854.75;;;0.57;100.00
69058;BME280;56128;37.534;-122.308;2023-03-02T10:57:45;101852.19;;;0.52;100.00
69058;BME280;56128;37.534;-122.308;2023-03-02T11:00:22;101838.25;;;0.45;100.00
69058;BME280;56128;37.534;-122.308;2023-03-02T11:02:59;101848.78;;;0.45;100.00
69058;BME280;56128;37.534;-122.308;2023-03-02T11:05:37;101853.09;;;0.50;100.00
69058;BME280;56128;37.534;-122.308;2023-03-02T11:08:16;101842.63;;;0.46;100.00
69058;BME280;56128;37.534;-122.308;2023-03-02T11:10:56;101853.09;;;0.50;100.00
69058;BME280;56128;37.534;-122.308;2023-03-02T11:13:29;101860.25;;;0.41;100.00
69058;BME280;56128;37.534;-122.308;2023-03-02T11:15:57;101862.88;;;0.43;100.00
69058;BME280;56128;37.534;-122.308;2023-03-02T11:18:39;101849.78;;;0.38;100.00
69058;BME280;56128;37.534;-122.308;2023-03-02T11:21:14;101856.75;;;0.41;100.00
69058;BME280;56128;37.534;-122.308;2023-03-02T11:37:24;101851.56;;;0.36;100.00
69058;BME280;56128;37.534;-122.308;2023-03-02T11:42:55;101846.34;;;0.33;100.00
69058;BME280;56128;37.534;-122.308;2023-03-02T11:45:25;101847.22;;;0.34;100.00
69058;BME280;56128;37.534;-122.308;2023-03-02T11:53:20;101851.56;;;0.36;100.00
69058;BME280;56128;37.534;-122.308;2023-03-02T11:55:49;101851.53;;;0.39;100.00
69058;BME280;56128;37.534;-122.308;2023-03-02T11:58:24;101849.81;;;0.35;100.00
69058;BME280;56128;37.534;-122.308;2023-03-02T12:00:51;101842.03;;;0.27;100.00
69058;BME280;56128;37.534;-122.308;2023-03-02T12:03:41;101853.38;;;0.31;100.00
69058;BME280;56128;37.534;-122.308;2023-03-02T12:08:52;101856.91;;;0.31;100.00
69058;BME280;56128;37.534;-122.308;2023-03-02T12:13:57;101845.59;;;0.25;100.00
69058;BME280;56128;37.534;-122.308;2023-03-02T12:16:34;101849.94;;;0.27;100.00
69058;BME280;56128;37.534;-122.308;2023-03-02T12:21:58;101851.72;;;0.27;100.00
69058;BME280;56128;37.534;-122.308;2023-03-02T12:24:26;101858.72;;;0.28;100.00
69058;BME280;56128;37.534;-122.308;2023-03-02T12:29:44;101859.63;;;0.25;100.00
69058;BME280;56128;37.534;-122.308;2023-03-02T12:34:59;101859.72;;;0.19;100.00
69058;BME280;56128;37.534;-122.308;2023-03-02T12:43:18;101877.28;;;0.20;100.00
69058;BME280;56128;37.534;-122.308;2023-03-02T12:45:48;101872.00;;;0.19;100.00
69058;BME280;56128;37.534;-122.308;2023-03-02T12:48:23;101879.97;;;0.15;100.00
69058;BME280;56128;37.534;-122.308;2023-03-02T12:50:51;101877.34;;;0.14;100.00
69058;BME280;56128;37.534;-122.308;2023-03-02T12:53:19;101872.19;;;0.08;100.00
69058;BME280;56128;37.534;-122.308;2023-03-02T12:55:45;101872.22;;;0.05;100.00
69058;BME280;56128;37.534;-122.308;2023-03-02T12:58:23;101891.44;;;0.11;100.00
69058;BME280;56128;37.534;-122.308;2023-03-02T13:00:53;101895.78;;;0.12;100.00
69058;BME280;56128;37.534;-122.308;2023-03-02T13:03:20;101901.94;;;0.13;100.00
69058;BME280;56128;37.534;-122.308;2023-03-02T13:05:46;101902.78;;;0.13;100.00
69058;BME280;56128;37.534;-122.308;2023-03-02T13:08:30;101895.75;;;0.15;100.00
69058;BME280;56128;37.534;-122.308;2023-03-02T13:11:00;101902.78;;;0.13;100.00
69058;BME280;56128;37.534;-122.308;2023-03-02T13:16:05;101916.84;;;0.12;100.00
69058;BME280;56128;37.534;-122.308;2023-03-02T13:18:35;101931.75;;;0.13;100.00
69058;BME280;56128;37.534;-122.308;2023-03-02T13:21:05;101929.16;;;0.10;100.00
69058;BME280;56128;37.534;-122.308;2023-03-02T13:23:32;101924.72;;;0.12;100.00
69058;BME280;56128;37.534;-122.308;2023-03-02T13:26:01;101923.88;;;0.12;100.00
69058;BME280;56128;37.534;-122.308;2023-03-02T13:28:37;101907.38;;;0.01;100.00
69058;BME280;56128;37.534;-122.308;2023-03-02T13:31:23;101914.47;;;-0.06;100.00